Portada
METAR-TAF:

METAR-TAF

Aeropuertos :

Aeropuerto Internacional de Xi'an-Xianyang

Xi'an, China

latitud: 34-26N, longitud: 108-45E, altitud: 479 m

Observación

El informe se hizo hace 56 minutos, a las 01:00 UTC
Viento 12 kt del este-noreste, variando entre norte-noreste y este
Temperatura 26°C
Humedad 51%
Presión 1007 hPa
Visibilidad 10 km o más
sin nubes por debajo de 1500 m y sin presencia de cumulonimbus.

METAR: ZLXY 220100Z 06006MPS 030V100 CAVOK 26/15 Q1007 NOSIG

Hora: 09:56 (01:56 UTC)

Pronóstico

El informe se hizo hace 6 horas y 28 minutos, a las 19:28 UTC
Pronóstico válido del 22 a las 00 UTC al 22 a las 24 UTC
Viento 6 kt del este-noreste
Visibilidad: 3000 m
calima

TAF: ZLXY 211928Z 2200/2224 06003MPS 3000 HZ NSC TX34/2208Z TN23/2223Z

Observaciones y pronósticos meteorológicos de más de 4000 aeropuertos (mensajes METAR y TAF).

Los puntos amarillos y rojos representan las estaciones disponibles.

Ponga el ratón en el punto deseado para ver el nombre de la estación.

Haga clic para ver las observaciones y los pronósticos meteorológicos.

Para cambiar el mapa : haga clic en los botones verdes con una cruz de color negro para hacer un zoom, en el botón verde con un guión para alejar o en las flechas verdes para mapas adyacentes.


METAR-TAF: